createdAt,value
2018-04-11T00:01:52.561Z,93015.47
2018-04-11T00:04:18.877Z,93008.05
2018-04-11T00:06:45.202Z,93002.86
2018-04-11T00:09:11.491Z,93001.48
2018-04-11T00:11:37.886Z,93005.86
2018-04-11T00:14:04.263Z,93001.48
2018-04-11T00:16:30.541Z,92997.18
2018-04-11T00:18:56.896Z,92998.89
2018-04-11T00:21:23.289Z,92993.56
2018-04-11T00:23:49.581Z,92983.78
2018-04-11T00:26:15.923Z,92972.98
2018-04-11T00:28:42.255Z,92968.22
2018-04-11T00:31:08.633Z,92970.12
2018-04-11T00:33:35.067Z,92977.77
2018-04-11T00:36:01.404Z,92972.02
2018-04-11T00:38:27.692Z,92977.23
2018-04-11T00:40:54.100Z,92979.14
2018-04-11T00:43:20.408Z,92977.22
2018-04-11T00:45:46.760Z,92983.30
2018-04-11T00:48:13.113Z,92982.42
2018-04-11T00:50:39.419Z,92986.41
2018-04-11T00:53:17.988Z,92991.70
2018-04-11T00:55:44.262Z,92989.69
2018-04-11T00:58:10.633Z,92996.19
2018-04-11T01:00:37.006Z,92997.94
2018-04-11T01:03:03.293Z,92993.58
2018-04-11T01:05:29.643Z,92989.02
2018-04-11T01:07:55.975Z,92984.66
2018-04-11T01:10:22.405Z,92987.30
2018-04-11T01:12:48.689Z,92977.33
2018-04-11T01:15:15.120Z,92981.07
2018-04-11T01:17:41.453Z,92985.02
2018-04-11T01:20:08.888Z,92991.23
2018-04-11T01:22:35.280Z,93000.59
2018-04-11T01:25:01.608Z,92998.92
2018-04-11T01:27:27.936Z,93002.81
2018-04-11T01:29:57.800Z,93008.05
2018-04-11T01:32:24.129Z,93002.62
2018-04-11T01:34:50.518Z,93001.94
2018-04-11T01:37:16.885Z,92999.05
2018-04-11T01:39:43.213Z,92995.28
2018-04-11T01:42:09.633Z,93001.45
2018-04-11T01:44:36.062Z,92998.58
2018-04-11T01:47:02.469Z,92994.06
2018-04-11T01:49:28.853Z,92986.79
2018-04-11T01:51:58.472Z,92986.41
2018-04-11T01:54:24.799Z,92989.95
2018-04-11T01:56:51.150Z,92990.56
2018-04-11T01:59:17.529Z,92988.66
2018-04-11T02:01:45.953Z,92988.00
2018-04-11T02:04:12.358Z,92991.19
2018-04-11T02:06:38.760Z,92991.39
2018-04-11T02:09:05.100Z,92998.95
2018-04-11T02:11:31.555Z,92998.08
2018-04-11T02:13:58.042Z,93003.35
2018-04-11T02:16:24.438Z,93007.42
2018-04-11T02:18:50.803Z,93003.98
2018-04-11T02:21:18.277Z,92998.93
2018-04-11T02:23:44.669Z,92991.53
2018-04-11T02:26:11.105Z,92989.59
2018-04-11T02:28:37.554Z,92980.05
2018-04-11T02:31:04.010Z,92980.61
2018-04-11T02:33:30.416Z,92978.59
2018-04-11T02:35:56.799Z,92985.88
2018-04-11T02:38:23.115Z,92989.04
2018-04-11T02:40:49.549Z,92985.93
2018-04-11T02:43:15.944Z,92982.51
2018-04-11T02:45:42.349Z,92984.99
2018-04-11T02:48:08.706Z,92985.65
2018-04-11T02:50:35.135Z,92978.35
2018-04-11T02:53:01.537Z,92975.87
2018-04-11T02:55:27.923Z,92976.11
2018-04-11T02:57:54.347Z,92977.56
2018-04-11T03:00:20.829Z,92977.98
2018-04-11T03:02:47.240Z,92974.96
2018-04-11T03:05:13.599Z,92971.16
2018-04-11T03:07:40.005Z,92976.98
2018-04-11T03:10:06.460Z,92968.43
2018-04-11T03:12:32.894Z,92967.23
2018-04-11T03:14:59.229Z,92967.44
2018-04-11T03:17:25.566Z,92962.66
2018-04-11T03:19:51.971Z,92973.50
2018-04-11T03:22:18.361Z,92980.56
2018-04-11T03:24:44.767Z,92972.41
2018-04-11T03:27:11.146Z,92979.73
2018-04-11T03:29:37.523Z,92977.50
2018-04-11T03:32:03.994Z,92976.59
2018-04-11T03:34:30.417Z,92981.14
2018-04-11T03:36:56.904Z,92980.06
2018-04-11T03:39:23.383Z,92984.74
2018-04-11T03:41:50.876Z,92981.27
2018-04-11T03:44:17.296Z,92973.34
2018-04-11T03:46:43.659Z,92968.98
2018-04-11T03:49:10.068Z,92978.36
2018-04-11T03:51:36.500Z,92976.27
2018-04-11T03:54:02.848Z,92976.86
2018-04-11T03:56:29.181Z,92983.84
2018-04-11T03:58:55.609Z,92985.88
2018-04-11T04:01:23.093Z,92983.86
2018-04-11T04:03:49.504Z,92993.17
2018-04-11T04:06:15.914Z,92987.59
2018-04-11T04:08:42.335Z,92999.50
2018-04-11T04:11:08.881Z,92997.44
2018-04-11T04:13:47.469Z,93009.42
2018-04-11T04:16:26.009Z,93015.38
2018-04-11T04:21:54.701Z,93007.00
2018-04-11T04:24:21.165Z,93006.27
2018-04-11T04:26:47.531Z,93006.20
2018-04-11T04:29:13.883Z,93008.48
2018-04-11T04:31:40.414Z,93011.77
2018-04-11T04:34:06.794Z,93012.09
2018-04-11T04:36:33.281Z,93013.08
2018-04-11T04:38:59.868Z,93014.35
2018-04-11T04:41:26.303Z,93012.52
2018-04-11T04:43:52.843Z,93020.09
2018-04-11T04:46:19.266Z,93028.72
2018-04-11T04:48:45.690Z,93022.11
2018-04-11T04:51:12.252Z,93021.50
2018-04-11T04:53:38.682Z,93021.97
2018-04-11T04:56:05.114Z,93023.00
2018-04-11T04:58:31.519Z,93022.13
2018-04-11T05:00:57.970Z,93022.94
2018-04-11T05:03:24.333Z,93017.31
2018-04-11T05:05:50.786Z,93029.13
2018-04-11T05:08:17.193Z,93020.40
2018-04-11T05:10:44.671Z,93020.28
2018-04-11T05:13:11.097Z,93019.77
2018-04-11T05:15:37.559Z,93021.77
2018-04-11T05:18:04.027Z,93031.70
2018-04-11T05:20:30.576Z,93038.45
2018-04-11T05:22:56.975Z,93044.63
2018-04-11T05:25:23.411Z,93030.44
2018-04-11T05:27:49.845Z,93031.33
2018-04-11T05:30:16.468Z,93031.86
2018-04-11T05:32:42.949Z,93027.55
2018-04-11T05:35:09.556Z,93022.17
2018-04-11T05:37:36.027Z,93029.01
2018-04-11T05:40:02.494Z,93031.75
2018-04-11T05:42:28.893Z,93033.37
2018-04-11T05:44:55.295Z,93034.13
2018-04-11T05:47:21.706Z,93035.93
2018-04-11T05:49:48.129Z,93041.91
2018-04-11T05:52:14.604Z,93044.52
2018-04-11T05:54:41.001Z,93042.58
2018-04-11T05:57:07.515Z,93045.91
2018-04-11T05:59:33.923Z,93051.05
2018-04-11T06:02:00.366Z,93057.92
2018-04-11T06:04:26.747Z,93039.69
2018-04-11T06:06:53.109Z,93057.48
2018-04-11T06:09:19.515Z,93060.66
2018-04-11T06:11:46.209Z,93059.41
2018-04-11T06:14:12.616Z,93066.23
2018-04-11T06:16:39.019Z,93060.42
2018-04-11T06:19:05.414Z,93051.41
2018-04-11T06:21:31.875Z,93064.97
2018-04-11T06:23:58.382Z,93065.64
2018-04-11T06:26:24.767Z,93047.42
2018-04-11T06:28:51.227Z,93053.87
2018-04-11T06:31:17.616Z,93070.86
2018-04-11T06:33:44.060Z,93068.81
2018-04-11T06:36:10.525Z,93085.47
2018-04-11T06:38:36.906Z,93087.42
2018-04-11T06:41:03.606Z,93084.06
2018-04-11T06:43:30.043Z,93071.27
2018-04-11T06:45:56.735Z,93075.92
2018-04-11T06:48:23.246Z,93088.53
2018-04-11T06:50:49.993Z,93080.69
2018-04-11T06:53:16.392Z,93073.56
2018-04-11T06:55:42.773Z,93070.42
2018-04-11T06:58:09.157Z,93072.64
2018-04-11T07:00:35.541Z,93074.06
2018-04-11T07:03:02.031Z,93073.73
2018-04-11T07:05:28.389Z,93067.52
2018-04-11T07:07:54.804Z,93072.59
2018-04-11T07:10:21.329Z,93065.73
2018-04-11T07:12:47.770Z,93066.97
2018-04-11T07:15:14.189Z,93071.36
2018-04-11T07:17:40.630Z,93059.54
2018-04-11T07:20:07.032Z,93045.11
2018-04-11T07:22:33.452Z,93039.94
2018-04-11T07:24:59.991Z,93045.30
2018-04-11T07:27:26.339Z,93052.08
2018-04-11T07:29:52.715Z,93048.25
2018-04-11T07:32:19.215Z,93043.61
2018-04-11T07:34:45.657Z,93042.00
2018-04-11T07:37:12.028Z,93042.95
2018-04-11T07:39:38.445Z,93049.00
2018-04-11T07:42:05.028Z,93046.70
2018-04-11T07:44:31.466Z,93049.93
2018-04-11T07:46:57.845Z,93052.05
2018-04-11T07:49:24.214Z,93053.94
2018-04-11T07:51:50.952Z,93055.31
2018-04-11T07:54:17.498Z,93054.75
2018-04-11T07:56:43.868Z,93053.65
2018-04-11T07:59:10.297Z,93050.13
2018-04-11T08:01:36.748Z,93046.59
2018-04-11T08:04:03.150Z,93035.52
2018-04-11T08:06:29.881Z,93038.08
2018-04-11T08:08:56.427Z,93054.66
2018-04-11T08:11:22.914Z,93058.14
2018-04-11T08:13:49.348Z,93062.45
2018-04-11T08:16:15.759Z,93064.45
2018-04-11T08:18:42.318Z,93067.14
2018-04-11T08:21:09.161Z,93073.72
2018-04-11T08:23:35.526Z,93077.06
2018-04-11T08:26:01.984Z,93076.83
2018-04-11T08:28:28.393Z,93082.66
2018-04-11T08:30:54.957Z,93096.42
2018-04-11T08:33:21.379Z,93092.86
2018-04-11T08:35:47.732Z,93088.77
2018-04-11T08:38:14.231Z,93085.21
2018-04-11T08:40:40.689Z,93084.12
2018-04-11T08:43:07.232Z,93069.84
2018-04-11T08:45:34.021Z,93061.27
2018-04-11T08:48:00.459Z,93069.50
2018-04-11T08:50:26.932Z,93065.90
2018-04-11T08:52:53.386Z,93062.90
2018-04-11T08:55:19.743Z,93055.85
2018-04-11T08:57:46.170Z,93054.03
2018-04-11T09:00:12.577Z,93054.53
2018-04-11T09:02:39.069Z,93045.95
2018-04-11T09:05:05.426Z,93043.80
2018-04-11T09:07:31.833Z,93040.48
2018-04-11T09:09:58.204Z,93033.63
2018-04-11T09:12:24.682Z,93035.78
2018-04-11T09:14:51.042Z,93037.96
2018-04-11T09:17:17.407Z,93025.53
2018-04-11T09:19:43.842Z,93030.88
2018-04-11T09:22:10.332Z,93015.89
2018-04-11T09:24:36.666Z,93019.80
2018-04-11T09:27:03.039Z,93012.23
2018-04-11T09:29:29.516Z,93006.61
2018-04-11T09:31:56.297Z,93012.02
2018-04-11T09:34:23.683Z,93013.28
2018-04-11T09:36:50.262Z,93016.73
2018-04-11T09:39:16.675Z,93022.17
2018-04-11T09:41:43.184Z,93016.09
2018-04-11T09:44:09.582Z,93000.77
2018-04-11T09:46:35.979Z,93011.14
2018-04-11T09:49:02.425Z,93010.67
2018-04-11T09:51:28.963Z,93001.69
2018-04-11T09:53:55.496Z,93000.53
2018-04-11T09:56:21.973Z,92992.55
2018-04-11T09:58:48.425Z,92988.39
2018-04-11T10:01:18.844Z,92985.01
2018-04-11T10:03:45.333Z,92987.45
2018-04-11T10:06:11.816Z,92979.20
2018-04-11T10:08:38.244Z,92974.31
2018-04-11T10:11:04.768Z,92963.81
2018-04-11T10:13:31.225Z,92962.75
2018-04-11T10:15:58.455Z,92966.13
2018-04-11T10:18:25.004Z,92957.01
2018-04-11T10:20:51.642Z,92948.08
2018-04-11T10:23:18.269Z,92940.85
2018-04-11T10:25:44.787Z,92941.09
2018-04-11T10:28:11.262Z,92944.64
2018-04-11T10:30:37.685Z,92935.95
2018-04-11T10:33:04.155Z,92932.28
2018-04-11T10:35:30.691Z,92935.89
2018-04-11T10:37:57.157Z,92924.88
2018-04-11T10:40:23.504Z,92927.58
2018-04-11T10:42:50.150Z,92931.81
2018-04-11T10:45:16.540Z,92931.47
2018-04-11T10:47:42.902Z,92917.00
2018-04-11T10:50:09.553Z,92911.39
2018-04-11T10:52:36.043Z,92905.66
2018-04-11T10:55:02.411Z,92908.16
2018-04-11T10:57:29.864Z,92904.14
2018-04-11T10:59:56.228Z,92902.48
2018-04-11T11:02:23.744Z,92904.48
2018-04-11T11:04:50.185Z,92912.30
2018-04-11T11:07:17.326Z,92904.59
2018-04-11T11:09:44.534Z,92906.80
2018-04-11T11:12:11.254Z,92907.17
2018-04-11T11:14:37.775Z,92913.59
2018-04-11T11:17:04.259Z,92914.80
2018-04-11T11:19:30.757Z,92913.08
2018-04-11T11:21:57.264Z,92912.67
2018-04-11T11:24:23.609Z,92906.23
2018-04-11T11:26:50.068Z,92911.22
2018-04-11T11:29:16.455Z,92907.50
2018-04-11T11:31:42.903Z,92902.96
2018-04-11T11:34:09.386Z,92902.96
2018-04-11T11:36:35.951Z,92899.19
2018-04-11T11:39:02.466Z,92900.83
2018-04-11T11:41:29.083Z,92894.27
2018-04-11T11:43:55.562Z,92893.00
2018-04-11T11:46:22.185Z,92892.30
2018-04-11T11:48:48.767Z,92885.89
2018-04-11T11:51:15.290Z,92885.06
2018-04-11T11:53:41.674Z,92882.07
2018-04-11T11:56:08.085Z,92879.80
2018-04-11T11:58:34.556Z,92880.59
2018-04-11T12:01:01.062Z,92867.89
2018-04-11T12:03:27.502Z,92871.00
2018-04-11T12:05:53.859Z,92871.34
2018-04-11T12:08:20.227Z,92858.25
2018-04-11T12:10:46.785Z,92869.28
2018-04-11T12:13:13.284Z,92851.75
2018-04-11T12:15:39.787Z,92854.75
2018-04-11T12:18:06.272Z,92853.20
2018-04-11T12:20:32.669Z,92845.24
2018-04-11T12:22:59.083Z,92842.98
2018-04-11T12:25:25.657Z,92834.30
2018-04-11T12:27:52.025Z,92837.14
2018-04-11T12:30:18.464Z,92830.30
2018-04-11T12:32:44.920Z,92829.29
2018-04-11T12:35:11.273Z,92824.56
2018-04-11T12:37:37.666Z,92826.43
2018-04-11T12:40:04.051Z,92817.73
2018-04-11T12:42:31.542Z,92811.92
2018-04-11T12:44:58.087Z,92816.04
2018-04-11T12:47:24.490Z,92810.95
2018-04-11T12:49:51.050Z,92819.77
2018-04-11T12:52:17.612Z,92810.92
2018-04-11T12:54:44.066Z,92812.42
2018-04-11T12:57:10.852Z,92808.77
2018-04-11T12:59:38.301Z,92805.23
2018-04-11T13:02:04.874Z,92799.58
2018-04-11T13:04:31.223Z,92800.75
2018-04-11T13:06:57.674Z,92795.38
2018-04-11T13:09:24.258Z,92796.61
2018-04-11T13:11:50.854Z,92800.88
2018-04-11T13:14:17.329Z,92796.55
2018-04-11T13:16:43.764Z,92785.42
2018-04-11T13:19:10.226Z,92783.77
2018-04-11T13:21:36.710Z,92775.80
2018-04-11T13:24:03.290Z,92776.80
2018-04-11T13:26:29.801Z,92768.33
2018-04-11T13:28:56.308Z,92768.30
2018-04-11T13:31:22.932Z,92765.73
2018-04-11T13:33:49.514Z,92767.86
2018-04-11T13:36:15.962Z,92768.17
2018-04-11T13:38:42.359Z,92767.84
2018-04-11T13:41:08.858Z,92775.64
2018-04-11T13:43:35.350Z,92772.78
2018-04-11T13:46:01.851Z,92775.14
2018-04-11T13:48:28.380Z,92780.66
2018-04-11T13:50:55.097Z,92774.36
2018-04-11T13:53:22.151Z,92775.81
2018-04-11T13:55:48.616Z,92767.47
2018-04-11T13:58:15.119Z,92771.08
2018-04-11T14:00:41.620Z,92774.91
2018-04-11T14:03:08.135Z,92773.80
2018-04-11T14:05:34.635Z,92764.66
2018-04-11T14:08:01.250Z,92766.37
2018-04-11T14:10:28.032Z,92756.38
2018-04-11T14:12:54.792Z,92756.80
2018-04-11T14:15:21.300Z,92753.50
2018-04-11T14:17:47.680Z,92758.07
2018-04-11T14:20:14.156Z,92757.64
2018-04-11T14:22:40.726Z,92756.64
2018-04-11T14:25:07.443Z,92757.93
2018-04-11T14:27:33.905Z,92761.80
2018-04-11T14:30:00.479Z,92766.21
2018-04-11T14:32:26.893Z,92758.25
2018-04-11T14:34:53.376Z,92765.36
2018-04-11T14:37:19.859Z,92759.43
2018-04-11T14:39:46.336Z,92758.38
2018-04-11T14:42:12.952Z,92758.23
2018-04-11T14:44:39.422Z,92761.88
2018-04-11T14:47:05.893Z,92751.83
2018-04-11T14:49:32.410Z,92751.28
2018-04-11T14:51:59.022Z,92751.77
2018-04-11T14:54:25.486Z,92749.34
2018-04-11T14:56:52.023Z,92750.67
2018-04-11T14:59:18.585Z,92747.30
2018-04-11T15:01:45.130Z,92748.53
2018-04-11T15:04:11.567Z,92754.50
2018-04-11T15:06:38.051Z,92759.07
2018-04-11T15:09:04.624Z,92754.75
2018-04-11T15:11:31.155Z,92752.11
2018-04-11T15:13:57.605Z,92756.90
2018-04-11T15:16:24.133Z,92751.55
2018-04-11T15:18:50.574Z,92758.70
2018-04-11T15:21:17.219Z,92763.91
2018-04-11T15:23:43.642Z,92760.97
2018-04-11T15:26:10.058Z,92768.28
2018-04-11T15:28:36.506Z,92763.80
2018-04-11T15:31:02.990Z,92772.29
2018-04-11T15:33:29.398Z,92767.43
2018-04-11T15:35:56.011Z,92770.91
2018-04-11T15:38:22.601Z,92770.06
2018-04-11T15:40:48.981Z,92767.16
2018-04-11T15:43:15.499Z,92763.94
2018-04-11T15:45:41.921Z,92761.85
2018-04-11T15:48:08.331Z,92770.30
2018-04-11T15:50:34.790Z,92774.13
2018-04-11T15:53:01.231Z,92777.16
2018-04-11T15:55:27.696Z,92778.96
2018-04-11T15:57:54.167Z,92779.37
2018-04-11T16:00:20.673Z,92776.17
2018-04-11T16:02:47.121Z,92775.54
2018-04-11T16:05:13.516Z,92774.70
2018-04-11T16:07:39.981Z,92769.73
2018-04-11T16:10:06.554Z,92773.09
2018-04-11T16:12:33.209Z,92770.69
2018-04-11T16:14:59.654Z,92772.27
2018-04-11T16:17:26.075Z,92773.72
2018-04-11T16:19:52.875Z,92776.68
2018-04-11T16:22:19.422Z,92779.88
2018-04-11T16:24:45.790Z,92778.38
2018-04-11T16:27:12.201Z,92776.75
2018-04-11T16:29:38.584Z,92784.18
2018-04-11T16:32:05.084Z,92780.92
2018-04-11T16:34:31.585Z,92783.31
2018-04-11T16:36:58.016Z,92781.75
2018-04-11T16:39:24.432Z,92786.10
2018-04-11T16:41:50.952Z,92785.20
2018-04-11T16:44:17.384Z,92792.00
2018-04-11T16:46:44.323Z,92796.04
2018-04-11T16:49:11.021Z,92790.89
2018-04-11T16:51:37.778Z,92791.08
2018-04-11T16:54:04.681Z,92794.00
2018-04-11T16:56:31.153Z,92795.39
2018-04-11T16:58:57.570Z,92799.28
2018-04-11T17:01:25.186Z,92796.14
2018-04-11T17:03:51.801Z,92808.64
2018-04-11T17:06:18.260Z,92804.48
2018-04-11T17:08:44.754Z,92807.22
2018-04-11T17:11:11.254Z,92802.05
2018-04-11T17:13:37.726Z,92806.25
2018-04-11T17:16:04.599Z,92807.11
2018-04-11T17:18:31.331Z,92819.92
2018-04-11T17:21:10.006Z,92824.88
2018-04-11T17:23:48.679Z,92823.15
2018-04-11T17:26:27.343Z,92830.47
2018-04-11T17:31:54.457Z,92838.67
2018-04-11T17:34:20.914Z,92844.95
2018-04-11T17:36:47.577Z,92843.47
2018-04-11T17:39:14.069Z,92850.16
2018-04-11T17:41:40.632Z,92856.30
2018-04-11T17:44:07.167Z,92860.80
2018-04-11T17:46:33.945Z,92870.16
2018-04-11T17:49:00.606Z,92876.47
2018-04-11T17:51:28.227Z,92871.95
2018-04-11T17:53:55.317Z,92875.92
2018-04-11T17:56:21.805Z,92877.09
2018-04-11T17:58:48.519Z,92875.89
2018-04-11T18:01:15.123Z,92882.85
2018-04-11T18:03:41.842Z,92881.89
2018-04-11T18:06:08.451Z,92886.52
2018-04-11T18:08:35.199Z,92889.29
2018-04-11T18:11:01.678Z,92882.17
2018-04-11T18:13:29.161Z,92888.60
2018-04-11T18:15:56.474Z,92897.42
2018-04-11T18:18:22.948Z,92892.45
2018-04-11T18:20:49.873Z,92888.22
2018-04-11T18:23:17.460Z,92892.09
2018-04-11T18:25:43.903Z,92899.71
2018-04-11T18:28:10.634Z,92910.50
2018-04-11T18:30:37.099Z,92918.57
2018-04-11T18:33:03.786Z,92924.66
2018-04-11T18:35:30.372Z,92934.03
2018-04-11T18:37:56.977Z,92945.17
2018-04-11T18:40:24.528Z,92958.11
2018-04-11T18:42:51.109Z,92948.73
2018-04-11T18:45:17.725Z,92962.79
2018-04-11T18:47:44.199Z,92965.70
2018-04-11T18:50:10.848Z,92958.02
2018-04-11T18:52:37.801Z,92956.70
2018-04-11T18:55:04.984Z,92955.07
2018-04-11T18:57:31.604Z,92949.72
2018-04-11T19:00:01.493Z,92954.84
2018-04-11T19:02:28.519Z,92952.90
2018-04-11T19:04:55.016Z,92950.27
2018-04-11T19:07:21.450Z,92950.53
2018-04-11T19:09:51.412Z,92951.15
2018-04-11T19:12:23.102Z,92947.05
2018-04-11T19:14:50.506Z,92951.39
2018-04-11T19:17:17.320Z,92943.94
2018-04-11T19:19:44.383Z,92942.15
2018-04-11T19:22:11.807Z,92939.25
2018-04-11T19:24:40.286Z,92941.28
2018-04-11T19:27:07.552Z,92944.14
2018-04-11T19:29:34.677Z,92958.30
2018-04-11T19:32:02.440Z,92962.67
2018-04-11T19:34:29.287Z,92970.54
2018-04-11T19:36:55.748Z,92960.09
2018-04-11T19:39:22.843Z,92966.28
2018-04-11T19:41:49.700Z,92961.55
2018-04-11T19:44:17.497Z,92961.62
2018-04-11T19:46:47.143Z,92960.09
2018-04-11T19:49:17.894Z,92964.66
2018-04-11T19:51:45.549Z,92958.87
2018-04-11T19:54:12.091Z,92964.25
2018-04-11T19:56:38.724Z,92966.87
2018-04-11T19:59:05.674Z,92964.28
2018-04-11T20:01:32.372Z,92973.39
2018-04-11T20:03:59.386Z,92969.41
2018-04-11T20:06:25.950Z,92972.69
2018-04-11T20:08:52.560Z,92978.03
2018-04-11T20:11:19.126Z,92977.00
2018-04-11T20:13:45.905Z,92980.42
2018-04-11T20:16:12.432Z,92977.46
2018-04-11T20:18:39.199Z,92983.00
2018-04-11T20:21:05.769Z,92983.20
2018-04-11T20:23:32.563Z,92979.49
2018-04-11T20:25:59.367Z,92983.07
2018-04-11T20:28:25.880Z,92987.39
2018-04-11T20:30:52.497Z,92991.20
2018-04-11T20:33:19.167Z,92988.59
2018-04-11T20:35:45.850Z,92993.89
2018-04-11T20:38:15.313Z,92993.07
2018-04-11T20:40:42.011Z,93000.44
2018-04-11T20:43:08.708Z,92995.98
2018-04-11T20:45:35.211Z,92991.97
2018-04-11T20:48:01.643Z,92995.35
2018-04-11T20:50:28.171Z,92990.33
2018-04-11T20:52:54.647Z,93002.03
2018-04-11T20:55:21.052Z,93007.06
2018-04-11T20:57:47.569Z,93003.48
2018-04-11T21:00:14.028Z,93010.42
2018-04-11T21:02:40.490Z,93017.79
2018-04-11T21:05:07.071Z,93018.47
2018-04-11T21:07:33.544Z,93010.80
2018-04-11T21:09:59.939Z,93010.80
2018-04-11T21:12:26.435Z,93009.27
2018-04-11T21:14:52.885Z,93011.77
2018-04-11T21:17:19.246Z,93012.88
2018-04-11T21:19:45.625Z,93014.72
2018-04-11T21:22:12.079Z,93015.53
2018-04-11T21:24:38.433Z,93022.44
2018-04-11T21:27:04.915Z,93023.12
2018-04-11T21:29:31.358Z,93017.55
2018-04-11T21:31:57.885Z,93019.84
2018-04-11T21:34:24.242Z,93018.92
2018-04-11T21:36:50.689Z,93017.80
2018-04-11T21:39:17.021Z,93023.69
2018-04-11T21:41:43.554Z,93028.17
2018-04-11T21:44:10.021Z,93030.89
2018-04-11T21:46:36.411Z,93028.50
2018-04-11T21:49:02.794Z,93035.25
2018-04-11T21:51:29.220Z,93030.50
2018-04-11T21:53:55.636Z,93032.61
2018-04-11T21:56:21.992Z,93031.40
2018-04-11T21:58:48.386Z,93029.00
2018-04-11T22:01:14.780Z,93033.63
2018-04-11T22:03:41.255Z,93031.00
2018-04-11T22:06:07.660Z,93030.09
2018-04-11T22:08:34.271Z,93034.34
2018-04-11T22:11:00.586Z,93035.23
2018-04-11T22:13:27.043Z,93036.94
2018-04-11T22:15:53.466Z,93038.66
2018-04-11T22:18:19.895Z,93034.05
2018-04-11T22:20:46.271Z,93035.38
2018-04-11T22:23:12.609Z,93030.44
2018-04-11T22:25:39.030Z,93034.37
2018-04-11T22:28:05.441Z,93032.17
2018-04-11T22:30:31.797Z,93032.43
2018-04-11T22:32:58.241Z,93031.93
2018-04-11T22:35:24.715Z,93030.77
2018-04-11T22:37:51.144Z,93033.10
2018-04-11T22:40:17.609Z,93034.75
2018-04-11T22:42:44.040Z,93030.93
2018-04-11T22:45:10.756Z,93032.03
2018-04-11T22:47:37.193Z,93039.19
2018-04-11T22:50:03.635Z,93042.37
2018-04-11T22:52:30.075Z,93039.84
2018-04-11T22:54:56.412Z,93039.46
2018-04-11T22:57:22.828Z,93039.50
2018-04-11T22:59:49.230Z,93035.20
2018-04-11T23:02:15.737Z,93036.91
2018-04-11T23:04:42.187Z,93036.77
2018-04-11T23:07:08.609Z,93036.57
2018-04-11T23:09:35.176Z,93036.05
2018-04-11T23:12:01.700Z,93036.63
2018-04-11T23:14:28.078Z,93038.81
2018-04-11T23:16:54.523Z,93035.84
2018-04-11T23:19:21.078Z,93047.98
2018-04-11T23:21:47.455Z,93035.84
2018-04-11T23:24:13.913Z,93039.94
2018-04-11T23:26:40.300Z,93029.31
2018-04-11T23:29:06.711Z,93042.16
2018-04-11T23:31:33.221Z,93038.89
2018-04-11T23:33:59.901Z,93042.87
2018-04-11T23:36:26.455Z,93045.70
2018-04-11T23:38:52.877Z,93043.19
2018-04-11T23:41:19.308Z,93046.12
2018-04-11T23:43:45.807Z,93044.80
2018-04-11T23:46:12.315Z,93041.63
2018-04-11T23:48:38.754Z,93037.23
2018-04-11T23:51:05.151Z,93036.83
2018-04-11T23:53:31.547Z,93041.08
2018-04-11T23:55:58.020Z,93042.36
2018-04-11T23:58:24.498Z,93036.53
